Time;durP1;ratioP1;P1;durP2;ratioP2;P2;SDS_P1;SDS_P2;PMS_P1;PMS_P2;Temp;Humidity;BMP_temperature;BMP_pressure;BME280_temperature;BME280_humidity;BME280_pressure;Samples;Min_cycle;Max_cycle;Signal;HPM_P1;HPM_P2
2022/08/01 00:01:07;;;;;;;;;3.00;3.00;;;;;27.42;58.13;101588.81;5020926;28;45252;-66
2022/08/01 00:03:32;;;;;;;;;3.67;3.67;;;;;27.33;58.66;101593.03;5022009;28;45328;-66
2022/08/01 00:05:57;;;;;;;;;3.00;3.00;;;;;27.36;59.45;101591.72;5019452;28;46734;-66
2022/08/01 00:08:23;;;;;;;;;2.33;2.33;;;;;27.35;59.22;101590.00;5019535;28;45306;-66
2022/08/01 00:10:48;;;;;;;;;2.33;2.33;;;;;27.35;58.72;101584.41;5015884;28;45386;-66
2022/08/01 00:13:13;;;;;;;;;2.00;2.00;;;;;27.37;58.52;101573.88;5017531;28;45231;-66
2022/08/01 00:15:39;;;;;;;;;4.00;4.00;;;;;27.48;58.51;101582.25;5018168;28;45532;-66
2022/08/01 00:18:04;;;;;;;;;2.00;2.00;;;;;27.51;58.55;101594.91;5019573;28;45403;-66
2022/08/01 00:20:29;;;;;;;;;4.33;2.67;;;;;27.50;59.00;101582.03;5014610;28;46047;-66
2022/08/01 00:22:55;;;;;;;;;5.33;4.00;;;;;27.55;58.40;101576.59;5018088;28;45684;-66
2022/08/01 00:25:20;;;;;;;;;4.00;4.00;;;;;27.60;58.87;101581.47;5022116;28;45465;-66
2022/08/01 00:27:45;;;;;;;;;4.00;4.00;;;;;27.55;58.25;101579.38;5023000;28;45228;-66
2022/08/01 00:30:11;;;;;;;;;5.33;4.00;;;;;27.57;58.92;101582.78;5021899;28;49509;-66
2022/08/01 00:32:36;;;;;;;;;5.00;3.00;;;;;27.41;59.95;101570.34;5023622;28;45369;-67
2022/08/01 00:35:02;;;;;;;;;2.33;2.33;;;;;27.50;58.64;101570.84;5021800;28;46104;-66
2022/08/01 00:37:27;;;;;;;;;5.00;3.00;;;;;27.60;58.39;101564.72;5022012;28;45441;-66
2022/08/01 00:39:52;;;;;;;;;5.00;3.67;;;;;27.59;58.62;101569.47;5018918;28;45677;-66
2022/08/01 00:42:18;;;;;;;;;2.00;2.00;;;;;27.54;58.56;101574.94;5015714;28;45371;-66
2022/08/01 00:44:43;;;;;;;;;2.00;2.00;;;;;27.57;58.35;101560.47;5021615;28;46743;-66
2022/08/01 00:47:09;;;;;;;;;3.00;3.00;;;;;27.59;58.30;101563.88;5021349;28;45429;-66
2022/08/01 00:49:34;;;;;;;;;2.00;2.00;;;;;27.52;58.93;101557.53;5019847;28;45304;-67
2022/08/01 00:52:02;;;;;;;;;2.00;2.00;;;;;27.56;58.48;101564.34;5023167;28;45409;-66
2022/08/01 00:54:27;;;;;;;;;2.00;2.00;;;;;27.47;59.65;101558.22;5021480;28;45441;-67
2022/08/01 00:56:54;;;;;;;;;1.67;1.67;;;;;27.41;59.24;101561.97;5022644;28;45485;-66
2022/08/01 00:59:21;;;;;;;;;1.00;1.00;;;;;27.43;58.56;101557.03;5022131;28;45212;-67
2022/08/01 01:01:47;;;;;;;;;2.00;2.00;;;;;27.45;58.60;101560.44;5022421;28;45426;-66
2022/08/01 01:04:12;;;;;;;;;1.00;1.00;;;;;27.56;57.84;101564.34;5020622;28;45307;-67
2022/08/01 01:07:19;;;;;;;;;3.33;2.00;;;;;27.39;59.14;101560.53;5019892;28;45364;-67
2022/08/01 01:09:52;;;;;;;;;1.33;0.67;;;;;27.43;58.02;101557.03;5020915;28;45320;-67
2022/08/01 01:12:31;;;;;;;;;2.33;2.00;;;;;27.43;57.92;101554.22;5021778;28;45339;-67
2022/08/01 01:15:09;;;;;;;;;2.00;2.00;;;;;27.31;59.24;101558.09;5024908;28;45550;-67
2022/08/01 01:18:01;;;;;;;;;2.00;2.00;;;;;27.36;58.77;101558.22;5019133;28;45325;-67
2022/08/01 01:20:36;;;;;;;;;0.67;0.67;;;;;27.10;59.83;101549.16;5034155;28;45547;-67
2022/08/01 01:23:23;;;;;;;;;1.00;1.00;;;;;27.22;59.95;101562.31;5022902;28;45306;-66
2022/08/01 01:26:47;;;;;;;;;1.00;1.00;;;;;27.18;59.97;101550.75;5024456;28;47918;-67
2022/08/01 01:29:12;;;;;;;;;1.67;1.00;;;;;27.23;59.39;101559.28;4985976;28;45405;-66
2022/08/01 01:31:49;;;;;;;;;0.00;0.00;;;;;27.13;59.57;101559.00;4975945;28;45356;-66
2022/08/01 01:34:17;;;;;;;;;1.33;1.33;;;;;27.07;59.78;101554.38;5011727;28;45268;-66
2022/08/01 01:36:45;;;;;;;;;3.33;2.00;;;;;26.83;60.90;101550.63;5023500;28;46936;-67
2022/08/01 01:39:13;;;;;;;;;2.00;2.00;;;;;26.90;61.12;101548.63;5023482;28;45880;-66
2022/08/01 01:41:41;;;;;;;;;1.00;1.00;;;;;26.94;61.06;101549.00;5017355;28;45994;-66
2022/08/01 01:44:09;;;;;;;;;4.00;2.00;;;;;26.96;60.24;101546.81;5023134;28;45168;-66
2022/08/01 01:46:35;;;;;;;;;3.00;3.00;;;;;27.10;59.93;101543.59;5023011;28;45449;-66
2022/08/01 01:49:02;;;;;;;;;2.00;2.00;;;;;27.20;59.52;101550.53;5024654;28;45387;-67
2022/08/01 01:51:29;;;;;;;;;0.67;0.67;;;;;27.25;59.99;101540.34;5023610;28;45465;-66
2022/08/01 01:53:55;;;;;;;;;3.00;3.00;;;;;27.08;60.63;101543.00;5023731;28;45464;-66
2022/08/01 01:56:22;;;;;;;;;2.00;2.00;;;;;26.73;62.36;101547.56;5024446;28;46476;-66
2022/08/01 01:58:56;;;;;;;;;1.67;1.67;;;;;26.81;62.52;101550.03;5025351;28;45627;-66
2022/08/01 02:01:25;;;;;;;;;2.00;2.00;;;;;26.87;62.02;101543.50;5023306;28;45358;-66
2022/08/01 02:03:53;;;;;;;;;1.00;1.00;;;;;26.88;62.20;101548.00;5023353;28;45533;-66
2022/08/01 02:06:21;;;;;;;;;2.00;2.00;;;;;26.93;62.15;101545.38;5022548;28;45335;-66
2022/08/01 02:08:47;;;;;;;;;1.33;1.33;;;;;26.94;62.61;101555.44;5022000;28;45342;-66
2022/08/01 02:11:19;;;;;;;;;1.00;1.00;;;;;26.79;63.95;101546.63;5019858;28;45842;-66
2022/08/01 02:13:53;;;;;;;;;1.00;1.00;;;;;26.82;63.11;101551.69;5020670;28;45392;-66
2022/08/01 02:16:20;;;;;;;;;2.00;2.00;;;;;26.68;63.90;101542.69;5018304;28;45343;-66
2022/08/01 02:18:46;;;;;;;;;2.00;1.00;;;;;26.71;64.34;101541.38;5018427;28;45298;-66
2022/08/01 02:21:16;;;;;;;;;4.00;1.00;;;;;26.79;64.23;101546.63;5016425;28;45750;-66
2022/08/01 02:23:42;;;;;;;;;1.00;1.00;;;;;26.73;64.76;101542.00;5024973;28;45487;-66
2022/08/01 02:26:13;;;;;;;;;4.67;1.00;;;;;26.71;65.18;101544.16;5015791;28;45433;-66
2022/08/01 02:29:02;;;;;;;;;0.33;0.33;;;;;26.84;64.54;101554.25;5022521;28;45512;-66
2022/08/01 02:31:34;;;;;;;;;2.00;1.00;;;;;26.82;64.09;101551.69;5023564;28;45371;-67
2022/08/01 02:34:04;;;;;;;;;0.67;0.67;;;;;26.75;65.08;101543.44;5025030;28;45324;-66
2022/08/01 02:36:35;;;;;;;;;1.00;1.00;;;;;26.73;64.87;101539.19;5020155;28;47254;-66
2022/08/01 02:39:06;;;;;;;;;0.00;0.00;;;;;26.82;64.75;101550.84;5023754;28;45424;-67
2022/08/01 02:41:35;;;;;;;;;1.00;1.00;;;;;26.78;65.22;101553.28;5016188;28;45426;-67
2022/08/01 02:44:04;;;;;;;;;1.33;0.00;;;;;26.72;65.00;101545.84;5020228;28;45539;-66
2022/08/01 02:46:56;;;;;;;;;2.00;0.00;;;;;26.63;65.67;101541.69;5023029;28;46035;-67
2022/08/01 02:49:23;;;;;;;;;1.00;1.00;;;;;26.69;64.97;101544.38;5005040;28;45260;-67
2022/08/01 02:51:51;;;;;;;;;2.67;0.00;;;;;26.82;64.47;101534.13;5024327;28;45394;-66
2022/08/01 02:54:21;;;;;;;;;1.00;1.00;;;;;26.80;64.78;101539.97;5023426;28;45490;-67
2022/08/01 02:56:48;;;;;;;;;3.00;2.00;;;;;26.80;65.25;101547.47;5022800;28;47408;-67
2022/08/01 02:59:18;;;;;;;;;0.67;0.00;;;;;26.55;65.78;101534.50;5023668;28;45318;-66
2022/08/01 03:01:47;;;;;;;;;1.00;1.00;;;;;26.66;65.34;101541.22;5021765;28;45447;-67
2022/08/01 03:04:13;;;;;;;;;2.00;2.00;;;;;26.66;65.75;101547.66;5022659;28;45506;-67
2022/08/01 03:06:39;;;;;;;;;2.67;1.33;;;;;26.53;66.09;101544.16;5020862;28;46098;-67
2022/08/01 03:09:06;;;;;;;;;1.00;1.00;;;;;26.54;66.13;101543.09;5017202;28;45313;-66
2022/08/01 03:11:34;;;;;;;;;1.33;1.33;;;;;26.55;65.36;101539.22;5018742;28;45358;-66
2022/08/01 03:14:04;;;;;;;;;2.00;2.00;;;;;26.60;65.74;101536.56;5016486;28;45301;-66
2022/08/01 03:16:33;;;;;;;;;2.00;2.00;;;;;26.59;65.12;101537.69;5015745;28;45594;-66
2022/08/01 03:19:02;;;;;;;;;1.33;0.00;;;;;26.54;65.16;101540.31;5015707;28;45429;-66
2022/08/01 03:21:30;;;;;;;;;1.00;1.00;;;;;26.44;65.53;101543.66;5022581;28;45322;-66
2022/08/01 03:24:00;;;;;;;;;2.00;2.00;;;;;26.31;66.04;101547.44;5023909;28;45625;-69
2022/08/01 03:26:31;;;;;;;;;1.67;1.67;;;;;26.48;65.48;101530.09;5023108;28;45534;-66
2022/08/01 03:29:06;;;;;;;;;0.67;0.67;;;;;26.49;65.74;101548.53;5012549;28;45388;-66
2022/08/01 03:31:33;;;;;;;;;2.00;1.33;;;;;26.39;65.80;101553.78;5022850;28;45322;-67
2022/08/01 03:33:58;;;;;;;;;2.00;2.00;;;;;26.14;66.78;101551.94;5024002;28;45469;-66
2022/08/01 03:36:28;;;;;;;;;2.00;2.00;;;;;26.25;67.22;101550.31;5022185;28;45473;-66
2022/08/01 03:38:59;;;;;;;;;3.00;1.00;;;;;26.46;65.79;101554.56;5022000;28;45481;-66
2022/08/01 03:41:28;;;;;;;;;1.00;1.00;;;;;26.40;65.67;101549.91;5017069;28;45437;-67
2022/08/01 03:44:10;;;;;;;;;1.00;1.00;;;;;26.41;65.63;101548.84;5020144;28;45411;-66
2022/08/01 03:46:42;;;;;;;;;3.67;3.00;;;;;26.35;66.05;101550.63;5022690;28;45477;-67
2022/08/01 03:49:17;;;;;;;;;2.00;2.00;;;;;26.48;65.66;101549.59;5022890;28;45516;-67
2022/08/01 03:51:44;;;;;;;;;2.67;2.67;;;;;26.35;65.98;101551.47;5022152;28;45481;-68
2022/08/01 03:54:10;;;;;;;;;2.67;2.67;;;;;26.48;64.91;101547.69;5022234;28;45450;-66
2022/08/01 03:56:37;;;;;;;;;3.00;3.00;;;;;26.85;63.77;101545.66;5036215;28;47576;-66
2022/08/01 03:59:03;;;;;;;;;1.67;1.67;;;;;26.92;63.20;101552.03;5022953;28;45336;-67
2022/08/01 04:01:31;;;;;;;;;3.33;2.00;;;;;26.76;63.43;101530.34;5022419;28;46439;-67
2022/08/01 04:03:59;;;;;;;;;2.67;1.00;;;;;26.74;63.72;101544.53;5022018;28;45504;-67
2022/08/01 04:06:24;;;;;;;;;1.33;1.33;;;;;26.80;63.82;101550.25;5018482;28;47328;-67
2022/08/01 04:08:56;;;;;;;;;2.33;2.33;;;;;27.05;62.43;101545.41;5018368;28;45299;-66
2022/08/01 04:11:24;;;;;;;;;4.00;2.00;;;;;27.11;62.27;101542.50;5018198;28;45461;-67
2022/08/01 04:13:52;;;;;;;;;2.00;2.00;;;;;27.04;62.54;101544.53;5014368;28;45576;-66
2022/08/01 04:16:22;;;;;;;;;3.33;1.33;;;;;26.88;63.40;101548.00;5021102;28;45731;-67
2022/08/01 04:18:48;;;;;;;;;3.33;2.00;;;;;26.73;64.08;101536.41;5020785;28;45397;-65
2022/08/01 04:21:13;;;;;;;;;2.33;2.00;;;;;26.81;63.86;101541.66;5015740;28;45370;-66
2022/08/01 04:23:43;;;;;;;;;3.00;3.00;;;;;26.87;63.22;101532.34;5015558;28;45568;-66
2022/08/01 04:26:10;;;;;;;;;2.00;2.00;;;;;26.96;62.73;101530.06;5021188;28;46733;-66
2022/08/01 04:28:38;;;;;;;;;4.00;3.00;;;;;26.89;62.42;101537.66;5022555;28;45413;-66
2022/08/01 04:31:09;;;;;;;;;1.00;1.00;;;;;26.87;62.66;101531.50;5019895;28;45314;-66
2022/08/01 04:33:36;;;;;;;;;2.67;2.67;;;;;26.49;63.92;101518.72;5022051;28;45497;-66
2022/08/01 04:36:06;;;;;;;;;2.00;2.00;;;;;26.51;64.43;101526.84;5018451;28;46673;-66
2022/08/01 04:38:36;;;;;;;;;5.33;3.00;;;;;26.49;64.52;101518.72;5014367;28;45382;-66
2022/08/01 04:41:03;;;;;;;;;3.33;2.00;;;;;26.48;64.60;101516.16;5017579;28;45455;-66
2022/08/01 04:43:28;;;;;;;;;4.67;2.67;;;;;26.56;64.54;101518.63;5013874;28;45560;-65
2022/08/01 04:45:54;;;;;;;;;5.67;2.00;;;;;26.52;64.59;101523.81;5022810;28;46104;-68
2022/08/01 04:48:24;;;;;;;;;1.00;1.00;;;;;26.49;64.91;101523.44;5026025;28;45347;-66
2022/08/01 04:50:49;;;;;;;;;2.00;2.00;;;;;26.37;65.86;101525.31;5019378;28;45467;-65
2022/08/01 04:53:17;;;;;;;;;1.67;1.67;;;;;26.53;64.79;101528.31;5026365;28;45225;-68
2022/08/01 04:55:43;;;;;;;;;4.00;3.33;;;;;26.35;66.15;101528.34;5035155;28;46140;-68
2022/08/01 04:58:10;;;;;;;;;7.67;4.67;;;;;26.53;65.19;101536.66;5014610;28;45984;-67
2022/08/01 05:00:36;;;;;;;;;2.67;1.67;;;;;26.51;65.77;101544.44;5018940;28;45250;-67
2022/08/01 05:03:01;;;;;;;;;2.00;2.00;;;;;26.52;65.65;101534.13;5018792;28;45382;-68
2022/08/01 05:05:27;;;;;;;;;4.33;2.33;;;;;26.42;65.96;101536.63;5024686;28;46214;-67
2022/08/01 05:07:52;;;;;;;;;2.00;2.00;;;;;26.59;65.23;101543.25;5015042;28;45347;-68
2022/08/01 05:10:17;;;;;;;;;2.00;2.00;;;;;26.57;65.79;101549.06;5022100;28;48081;-68
2022/08/01 05:12:42;;;;;;;;;1.00;1.00;;;;;26.46;66.30;101560.13;5018127;28;45418;-67
2022/08/01 05:15:08;;;;;;;;;4.00;2.00;;;;;26.21;67.27;101552.69;5024212;28;45548;-67
2022/08/01 05:17:33;;;;;;;;;3.00;3.00;;;;;26.27;67.08;101554.59;5018240;28;45388;-67
2022/08/01 05:19:59;;;;;;;;;3.33;3.33;;;;;26.44;66.47;101562.31;5025041;28;45370;-67
2022/08/01 05:22:25;;;;;;;;;2.33;2.33;;;;;26.27;67.45;101560.16;5020651;28;45665;-66
2022/08/01 05:24:51;;;;;;;;;1.00;1.00;;;;;26.11;67.26;101565.44;5019570;28;46258;-67
2022/08/01 05:27:16;;;;;;;;;4.67;2.00;;;;;26.30;67.36;101565.25;5023799;28;45442;-68
2022/08/01 05:29:41;;;;;;;;;17.33;17.00;;;;;26.25;67.27;101562.31;5023903;28;45232;-68
2022/08/01 05:32:07;;;;;;;;;1.33;1.33;;;;;26.37;66.72;101558.75;5021876;28;45399;-66
2022/08/01 05:34:33;;;;;;;;;3.00;3.00;;;;;26.25;66.43;101553.94;5024273;28;45403;-67
2022/08/01 05:36:58;;;;;;;;;4.33;1.33;;;;;26.51;65.71;101555.59;5031920;28;45332;-67
2022/08/01 05:39:24;;;;;;;;;1.00;1.00;;;;;26.24;67.68;101555.00;5024558;28;45252;-68
2022/08/01 05:41:49;;;;;;;;;7.33;6.00;;;;;26.26;67.85;101565.94;5019296;28;45241;-68
2022/08/01 05:44:16;;;;;;;;;5.00;3.00;;;;;26.31;67.17;101558.59;5023817;28;45591;-68
2022/08/01 05:46:41;;;;;;;;;2.00;1.67;;;;;26.25;65.42;101567.88;5023431;28;45382;-65
2022/08/01 05:49:07;;;;;;;;;1.00;1.00;;;;;26.24;65.43;101563.34;5023693;28;45402;-68
2022/08/01 05:51:33;;;;;;;;;1.67;1.67;;;;;26.16;65.74;101562.81;5022748;28;45331;-67
2022/08/01 05:53:58;;;;;;;;;1.00;1.00;;;;;26.14;65.38;101574.22;5023876;28;46382;-68
2022/08/01 05:56:24;;;;;;;;;2.33;2.33;;;;;25.85;67.31;101567.44;5022498;28;45162;-67
2022/08/01 05:58:51;;;;;;;;;3.33;3.33;;;;;26.02;66.43;101570.47;5024257;28;45287;-68
2022/08/01 06:01:17;;;;;;;;;3.00;2.00;;;;;25.83;67.11;101569.59;5023443;28;45423;-68
2022/08/01 06:03:42;;;;;;;;;1.00;1.00;;;;;25.92;66.65;101572.94;5022594;28;46826;-67
2022/08/01 06:06:07;;;;;;;;;3.67;3.00;;;;;26.05;66.47;101566.38;5019274;28;45225;-66
2022/08/01 06:08:33;;;;;;;;;2.67;2.00;;;;;26.18;66.49;101578.22;5020489;28;45296;-66
2022/08/01 06:10:58;;;;;;;;;2.67;2.00;;;;;26.22;66.03;101579.47;5017486;28;45640;-67
2022/08/01 06:13:24;;;;;;;;;3.00;3.00;;;;;26.17;66.67;101576.50;5026935;28;48280;-67
2022/08/01 06:15:50;;;;;;;;;4.00;3.00;;;;;26.05;67.28;101571.94;5013874;28;45315;-67
2022/08/01 06:18:15;;;;;;;;;5.00;5.00;;;;;26.23;66.39;101581.16;5016900;28;45394;-67
2022/08/01 06:20:41;;;;;;;;;3.67;2.00;;;;;26.28;66.38;101572.16;5023729;28;45399;-67
2022/08/01 06:23:07;;;;;;;;;2.00;2.00;;;;;25.95;67.46;101567.75;5015799;28;45448;-67
2022/08/01 06:25:33;;;;;;;;;5.00;5.00;;;;;26.03;68.21;101576.88;5022895;28;45414;-67
2022/08/01 06:27:58;;;;;;;;;2.67;2.67;;;;;26.27;65.80;101582.44;5023881;28;45368;-67
2022/08/01 06:30:24;;;;;;;;;4.67;3.67;;;;;26.43;64.63;101575.41;5022195;28;45492;-67
2022/08/01 06:32:49;;;;;;;;;2.00;2.00;;;;;26.38;64.43;101585.50;5022078;28;45518;-67
2022/08/01 06:35:15;;;;;;;;;4.67;3.00;;;;;26.44;64.43;101573.47;5020326;28;45416;-67
2022/08/01 06:37:41;;;;;;;;;2.00;2.00;;;;;26.50;64.18;101578.97;5020185;28;45415;-67
2022/08/01 06:40:08;;;;;;;;;3.00;2.67;;;;;26.55;64.11;101586.59;5019406;28;45378;-67
2022/08/01 06:42:35;;;;;;;;;3.00;3.00;;;;;26.49;64.43;101585.59;5017661;28;46488;-67
2022/08/01 06:45:12;;;;;;;;;2.00;2.00;;;;;26.61;63.86;101582.88;5021639;28;45430;-66
2022/08/01 06:47:38;;;;;;;;;2.33;1.33;;;;;26.78;63.08;101583.94;5022112;28;45405;-67
2022/08/01 06:50:05;;;;;;;;;5.67;3.67;;;;;26.75;63.48;101585.25;5022781;28;45492;-67
2022/08/01 06:52:30;;;;;;;;;4.00;3.00;;;;;26.82;63.41;101568.44;5022663;28;46802;-67
2022/08/01 06:54:55;;;;;;;;;4.00;2.67;;;;;26.89;62.61;101577.56;5022312;28;45359;-67
2022/08/01 06:57:21;;;;;;;;;5.00;4.00;;;;;26.81;63.25;101566.75;5022111;28;45417;-67
2022/08/01 06:59:46;;;;;;;;;4.67;4.00;;;;;26.94;62.40;101580.53;5022472;28;45530;-67
2022/08/01 07:02:12;;;;;;;;;2.00;2.00;;;;;26.90;62.53;101576.50;5020512;28;46701;-66
2022/08/01 07:04:37;;;;;;;;;4.00;4.00;;;;;26.88;62.72;101573.09;5022254;28;45363;-67
2022/08/01 07:07:04;;;;;;;;;3.67;3.67;;;;;27.05;62.54;101585.28;5022463;28;45320;-67
2022/08/01 07:09:29;;;;;;;;;3.00;3.00;;;;;27.18;61.32;101575.88;5017853;28;45355;-67
2022/08/01 07:11:55;;;;;;;;;3.67;3.67;;;;;27.32;61.07;101569.03;5029669;28;47008;-67
2022/08/01 07:14:22;;;;;;;;;5.67;4.67;;;;;27.27;60.68;101581.97;5018776;28;45445;-67
2022/08/01 07:16:47;;;;;;;;;9.67;6.33;;;;;26.97;62.14;101582.84;5017429;28;45442;-67
2022/08/01 07:19:13;;;;;;;;;5.67;4.00;;;;;27.19;61.63;101573.94;5004334;28;45377;-66
2022/08/01 07:21:39;;;;;;;;;7.33;6.00;;;;;27.45;60.69;101573.53;5022306;28;45208;-66
2022/08/01 07:24:06;;;;;;;;;6.33;4.33;;;;;27.75;59.46;101579.06;5013229;28;45386;-66
2022/08/01 07:26:31;;;;;;;;;4.00;4.00;;;;;27.70;59.15;101584.50;5021979;28;45418;-66
2022/08/01 07:28:57;;;;;;;;;4.67;4.67;;;;;27.47;59.76;101582.50;5022455;28;45640;-66
2022/08/01 07:31:22;;;;;;;;;9.00;8.00;;;;;27.31;60.13;101574.84;5020708;28;45338;-66
2022/08/01 07:33:48;;;;;;;;;7.00;7.00;;;;;27.56;59.79;101583.88;5021038;28;45339;-66
2022/08/01 07:36:14;;;;;;;;;6.33;6.33;;;;;27.66;58.82;101586.94;5019218;28;45457;-67
2022/08/01 07:38:39;;;;;;;;;7.00;6.67;;;;;27.51;59.38;101581.78;5018973;28;45346;-68
2022/08/01 07:41:04;;;;;;;;;3.00;3.00;;;;;27.78;58.47;101584.16;5022269;28;45611;-66
2022/08/01 07:43:29;;;;;;;;;7.00;7.00;;;;;27.88;57.56;101579.66;5022913;28;45315;-66
2022/08/01 07:45:55;;;;;;;;;5.00;5.00;;;;;28.10;56.81;101593.03;5021031;28;45355;-67
2022/08/01 07:48:23;;;;;;;;;10.00;8.00;;;;;28.31;56.13;101600.81;5023626;28;45383;-67
2022/08/01 07:50:49;;;;;;;;;5.00;4.33;;;;;28.40;56.54;101610.53;5013848;28;46397;-67
2022/08/01 07:53:14;;;;;;;;;6.00;4.00;;;;;28.20;55.90;101608.09;5020483;28;45329;-68
2022/08/01 07:55:40;;;;;;;;;6.00;6.00;;;;;28.27;56.16;101599.63;5016987;28;45334;-67
2022/08/01 07:58:05;;;;;;;;;6.33;5.00;;;;;28.22;55.84;101607.84;5023325;28;45298;-68
2022/08/01 08:00:30;;;;;;;;;7.67;5.00;;;;;28.17;55.36;101613.34;5021882;28;45682;-67
2022/08/01 08:02:58;;;;;;;;;9.33;7.00;;;;;28.55;55.01;101608.06;5021840;28;45294;-65
2022/08/01 08:05:24;;;;;;;;;5.33;4.00;;;;;28.50;54.56;101610.72;5022121;28;45445;-65
2022/08/01 08:07:49;;;;;;;;;8.33;8.33;;;;;27.64;56.71;101605.88;5014423;28;45587;-67
2022/08/01 08:10:14;;;;;;;;;8.00;7.67;;;;;27.79;55.99;101609.03;5018924;28;45301;-67
2022/08/01 08:12:39;;;;;;;;;5.33;4.67;;;;;28.37;54.76;101604.56;5010074;28;45398;-67
2022/08/01 08:15:05;;;;;;;;;6.00;6.00;;;;;28.44;53.78;101608.06;5021734;28;45555;-67
2022/08/01 08:17:31;;;;;;;;;9.00;7.67;;;;;28.49;54.28;101609.03;5010081;28;45346;-67
2022/08/01 08:19:57;;;;;;;;;7.33;7.33;;;;;28.71;53.68;101600.00;5019035;28;46456;-67
2022/08/01 08:22:22;;;;;;;;;8.33;7.00;;;;;28.88;52.38;101610.19;5021840;28;45514;-67
2022/08/01 08:24:47;;;;;;;;;10.67;10.00;;;;;29.01;52.61;101600.63;5021970;28;45528;-67
2022/08/01 08:27:13;;;;;;;;;8.00;7.00;;;;;28.86;52.46;101587.19;5022170;28;45335;-67
2022/08/01 08:29:38;;;;;;;;;7.33;7.33;;;;;29.03;51.56;101609.63;5021803;28;45348;-68
2022/08/01 08:32:04;;;;;;;;;7.33;7.33;;;;;29.21;50.92;101594.59;5017306;28;45212;-68
2022/08/01 08:34:29;;;;;;;;;5.33;5.33;;;;;29.54;50.35;101608.66;5022067;28;45306;-68
2022/08/01 08:36:57;;;;;;;;;7.33;5.00;;;;;29.21;50.64;101615.03;5012897;28;45332;-67
2022/08/01 08:39:23;;;;;;;;;4.67;4.00;;;;;29.01;50.70;101606.22;5024348;28;47600;-68
2022/08/01 08:41:49;;;;;;;;;8.00;6.33;;;;;29.28;51.16;101601.72;5021391;28;45270;-67
2022/08/01 08:44:16;;;;;;;;;5.00;3.67;;;;;29.30;49.05;101598.66;5021858;28;45400;-67
2022/08/01 08:46:44;;;;;;;;;6.33;6.00;;;;;29.56;49.21;101586.84;5014378;28;45574;-67
2022/08/01 08:49:10;;;;;;;;;4.67;4.33;;;;;29.36;49.39;101603.31;5019518;28;46218;-67
2022/08/01 08:51:39;;;;;;;;;5.33;5.33;;;;;29.67;49.48;101593.47;5021572;28;45332;-67
2022/08/01 08:54:06;;;;;;;;;3.67;3.33;;;;;30.24;48.86;101594.13;5021328;28;45323;-68
2022/08/01 08:56:35;;;;;;;;;4.67;4.67;;;;;30.46;47.70;101595.00;5016826;28;45528;-67
2022/08/01 08:59:02;;;;;;;;;4.00;4.00;;;;;30.66;46.51;101590.78;5021547;28;46489;-67
2022/08/01 09:01:28;;;;;;;;;6.00;6.00;;;;;30.90;45.40;101598.66;5020866;28;45361;-67
2022/08/01 09:03:53;;;;;;;;;5.00;5.00;;;;;30.56;45.18;101591.50;5019290;28;45423;-68
2022/08/01 09:06:19;;;;;;;;;3.67;3.67;;;;;30.28;45.77;101592.50;5018910;28;45411;-67
2022/08/01 09:08:46;;;;;;;;;4.00;3.67;;;;;30.02;46.81;101585.69;5017648;28;46670;-65
2022/08/01 09:11:11;;;;;;;;;3.00;3.00;;;;;30.07;46.55;101588.56;5030196;28;46010;-67
2022/08/01 09:13:37;;;;;;;;;5.33;3.00;;;;;30.26;46.96;101597.50;5014543;28;45458;-67
2022/08/01 09:16:04;;;;;;;;;4.00;4.00;;;;;30.45;45.67;101595.25;5012444;28;45327;-67
2022/08/01 09:18:43;;;;;;;;;7.67;5.33;;;;;30.15;46.15;101606.88;5019024;28;47504;-66
2022/08/01 09:21:09;;;;;;;;;4.00;4.00;;;;;30.26;45.97;101597.50;5017687;28;45424;-67
2022/08/01 09:23:39;;;;;;;;;5.33;5.33;;;;;30.38;45.62;101603.00;5020385;28;45393;-67
2022/08/01 09:26:06;;;;;;;;;6.00;6.00;;;;;29.99;46.16;101607.75;5020982;28;45417;-67
2022/08/01 09:28:32;;;;;;;;;4.33;4.00;;;;;29.92;46.23;101599.50;5020235;28;45477;-68
2022/08/01 09:30:58;;;;;;;;;6.00;5.33;;;;;29.83;46.83;101601.03;5018997;28;45387;-67
2022/08/01 09:33:23;;;;;;;;;6.67;6.00;;;;;29.83;46.90;101597.38;5021814;28;45381;-67
2022/08/01 09:35:57;;;;;;;;;4.33;4.33;;;;;29.58;47.48;101597.81;5021004;28;45464;-67
2022/08/01 09:38:26;;;;;;;;;5.67;4.33;;;;;29.53;48.07;101611.69;5019398;28;46201;-67
2022/08/01 09:40:59;;;;;;;;;4.33;4.33;;;;;29.56;48.37;101608.41;5022351;28;45433;-66
2022/08/01 09:43:27;;;;;;;;;6.33;6.33;;;;;29.36;49.19;101604.16;5023856;28;45448;-67
2022/08/01 09:45:54;;;;;;;;;9.00;7.00;;;;;29.17;50.20;101594.22;5021272;28;45414;-66
2022/08/01 09:48:20;;;;;;;;;7.00;5.33;;;;;29.12;49.42;101599.75;5023056;28;46355;-66
2022/08/01 09:50:47;;;;;;;;;8.00;8.00;;;;;29.00;50.30;101599.78;5033300;28;45405;-66
2022/08/01 09:53:14;;;;;;;;;9.67;8.33;;;;;28.94;50.39;101594.34;5024680;28;45427;-66
2022/08/01 09:55:41;;;;;;;;;7.67;6.00;;;;;29.00;50.20;101621.34;5024341;28;45437;-67
2022/08/01 09:58:07;;;;;;;;;11.67;10.67;;;;;28.93;51.36;101615.03;5024616;28;46369;-67
2022/08/01 10:00:34;;;;;;;;;9.00;9.00;;;;;29.23;50.39;101610.00;5024132;28;45377;-67
2022/08/01 10:03:18;;;;;;;;;7.67;7.67;;;;;29.79;49.03;101609.09;5022969;28;45446;-67
2022/08/01 10:05:44;;;;;;;;;11.00;11.00;;;;;29.91;47.62;101610.94;5021922;28;45590;-67
2022/08/01 10:08:10;;;;;;;;;8.67;7.00;;;;;29.84;47.34;101616.72;5018284;28;47191;-67
2022/08/01 10:10:35;;;;;;;;;8.00;8.00;;;;;30.04;46.68;101611.47;5019428;28;45512;-67
2022/08/01 10:13:02;;;;;;;;;6.00;6.00;;;;;30.74;46.10;101608.03;5016759;28;45363;-67
2022/08/01 10:15:27;;;;;;;;;5.33;5.33;;;;;30.81;45.04;101603.06;5022649;28;45556;-67
2022/08/01 10:17:55;;;;;;;;;10.00;7.67;;;;;31.28;42.99;101602.47;5012873;28;46758;-67
2022/08/01 10:20:24;;;;;;;;;6.67;5.33;;;;;31.43;42.54;101599.81;5021619;28;45469;-67
2022/08/01 10:22:53;;;;;;;;;8.67;7.00;;;;;31.66;41.83;101605.09;5009771;28;45238;-67
2022/08/01 10:25:21;;;;;;;;;8.00;5.00;;;;;31.63;43.00;101608.44;5023558;28;45406;-67
2022/08/01 10:27:49;;;;;;;;;5.00;5.00;;;;;32.26;41.30;101605.84;5023884;28;46302;-67
2022/08/01 10:30:14;;;;;;;;;8.00;7.00;;;;;32.32;40.63;101608.44;5021683;28;45192;-67
2022/08/01 10:32:42;;;;;;;;;5.33;4.33;;;;;32.05;40.31;101616.09;5023210;28;45377;-66
2022/08/01 10:35:08;;;;;;;;;6.00;6.00;;;;;31.62;42.41;101618.00;5017989;28;45226;-67
2022/08/01 10:37:35;;;;;;;;;5.33;5.33;;;;;31.40;43.10;101617.22;5020074;28;45916;-67
2022/08/01 10:40:01;;;;;;;;;4.33;4.33;;;;;31.46;41.99;101613.31;5023141;28;46475;-67
2022/08/01 10:42:27;;;;;;;;;6.33;6.00;;;;;31.16;43.03;101616.66;5023236;28;45500;-67
2022/08/01 10:44:54;;;;;;;;;7.00;7.00;;;;;30.91;43.76;101620.00;5022455;28;45299;-66
2022/08/01 10:47:42;;;;;;;;;3.67;3.67;;;;;30.63;44.10;101617.41;5023791;28;45353;-66
2022/08/01 10:50:31;;;;;;;;;8.00;6.00;;;;;29.90;45.61;101615.69;5015055;28;45477;-66
2022/08/01 10:53:17;;;;;;;;;5.00;5.00;;;;;29.99;45.59;101605.81;5018863;28;45350;-66
2022/08/01 10:55:49;;;;;;;;;5.00;5.00;;;;;30.31;44.07;101602.34;5023730;28;45556;-66
2022/08/01 10:58:23;;;;;;;;;2.67;2.67;;;;;30.80;44.33;101604.16;5016494;28;47174;-66
2022/08/01 11:00:57;;;;;;;;;10.33;9.00;;;;;30.71;44.14;101604.88;5018908;28;45647;-66
2022/08/01 11:03:35;;;;;;;;;9.00;9.00;;;;;30.35;44.88;101601.56;5023414;28;45313;-66
2022/08/01 11:06:03;;;;;;;;;7.00;7.00;;;;;30.58;44.81;101606.13;5021750;28;45718;-66
2022/08/01 11:08:30;;;;;;;;;8.00;8.00;;;;;30.47;44.84;101602.28;5020889;28;46540;-68
2022/08/01 11:11:04;;;;;;;;;7.67;7.00;;;;;30.70;44.90;101609.63;5013273;28;45470;-66
2022/08/01 11:13:58;;;;;;;;;8.33;7.67;;;;;31.23;43.50;101606.06;5027132;28;45553;-66
2022/08/01 11:16:30;;;;;;;;;9.00;8.33;;;;;31.95;41.99;101613.19;5017070;28;45568;-66
2022/08/01 11:18:56;;;;;;;;;9.33;8.33;;;;;32.05;41.90;101599.22;5016688;28;46280;-66
2022/08/01 11:21:23;;;;;;;;;12.00;8.33;;;;;32.66;40.15;101599.56;5016374;28;45435;-67
2022/08/01 11:23:53;;;;;;;;;6.33;6.33;;;;;32.78;39.36;101603.06;5014470;28;45592;-67
2022/08/01 11:26:20;;;;;;;;;7.00;7.00;;;;;32.65;39.66;101595.94;5023244;28;45339;-68
2022/08/01 11:29:13;;;;;;;;;8.33;8.33;;;;;32.16;40.48;101602.97;5022863;28;45410;-68